Fallon, Montana
Current Conditions -  °F | °C
As of 3:35 AM on Friday 24 Oct 2014 (Local Time) from KGDV Reporting Station
Clear Clear  
Wind Chill: 36°   Ceiling: Unl
Heat Index: 41°   Visibility: 10mi
Dew Point: 34°   Wind: 8mph
Humidity: 76%   Direction: 160°SSE
Pressure: 29.84"   Gusts: NA
Location:  46.83°N, 105.13°W
Report Text: KGDV 240935Z AUTO 16007KT 10SM CLR 05/01 A2984 RMK AO1
Loading
Personal Weather Stations






























Interactive Weather Map
Tropical Storm Tracking
New forecast layout! Learn more

10-Day Weather Forecast

Advertisements
Track Severe Weather on mobile